sensor_id;sensor_type;location;lat;lon;timestamp;pressure;altitude;pressure_sealevel;temperature;humidity
13705;BME280;6924;52.122;9.952;2023-06-26T00:01:00;100398.56;;;20.18;88.14
13705;BME280;6924;52.122;9.952;2023-06-26T00:03:27;100392.47;;;20.23;88.86
13705;BME280;6924;52.122;9.952;2023-06-26T00:05:54;100401.16;;;20.27;89.63
13705;BME280;6924;52.122;9.952;2023-06-26T00:08:26;100393.38;;;20.28;89.77
13705;BME280;6924;52.122;9.952;2023-06-26T00:10:52;100387.19;;;20.26;89.86
13705;BME280;6924;52.122;9.952;2023-06-26T00:13:19;100391.31;;;20.28;90.23
13705;BME280;6924;52.122;9.952;2023-06-26T00:15:47;100390.50;;;20.28;90.55
13705;BME280;6924;52.122;9.952;2023-06-26T00:18:13;100387.19;;;20.26;89.48
13705;BME280;6924;52.122;9.952;2023-06-26T00:20:39;100386.34;;;20.25;89.70
13705;BME280;6924;52.122;9.952;2023-06-26T00:23:06;100378.97;;;20.24;89.94
13705;BME280;6924;52.122;9.952;2023-06-26T00:25:32;100388.00;;;20.26;90.01
13705;BME280;6924;52.122;9.952;2023-06-26T00:30:25;100379.28;;;20.19;89.67
13705;BME280;6924;52.122;9.952;2023-06-26T00:32:53;100381.31;;;20.18;89.43
13705;BME280;6924;52.122;9.952;2023-06-26T00:35:19;100384.13;;;20.15;90.01
13705;BME280;6924;52.122;9.952;2023-06-26T00:37:46;100380.44;;;20.14;90.14
13705;BME280;6924;52.122;9.952;2023-06-26T00:40:12;100378.78;;;20.13;89.21
13705;BME280;6924;52.122;9.952;2023-06-26T00:42:39;100381.59;;;20.10;89.81
13705;BME280;6924;52.122;9.952;2023-06-26T00:45:06;100383.56;;;20.06;90.12
13705;BME280;6924;52.122;9.952;2023-06-26T00:47:32;100373.69;;;20.03;88.98
13705;BME280;6924;52.122;9.952;2023-06-26T00:50:00;100374.91;;;20.02;89.04
13705;BME280;6924;52.122;9.952;2023-06-26T00:52:28;100370.81;;;20.03;90.07
13705;BME280;6924;52.122;9.952;2023-06-26T00:54:55;100373.59;;;19.99;89.31
13705;BME280;6924;52.122;9.952;2023-06-26T00:57:22;100362.91;;;19.96;89.84
13705;BME280;6924;52.122;9.952;2023-06-26T00:59:49;100359.53;;;19.91;89.61
13705;BME280;6924;52.122;9.952;2023-06-26T01:02:16;100360.38;;;19.91;90.63
13705;BME280;6924;52.122;9.952;2023-06-26T01:04:46;100365.25;;;19.91;89.82
13705;BME280;6924;52.122;9.952;2023-06-26T01:07:15;100351.31;;;19.89;89.48
13705;BME280;6924;52.122;9.952;2023-06-26T01:09:44;100359.47;;;19.87;90.08
13705;BME280;6924;52.122;9.952;2023-06-26T01:12:11;100345.06;;;19.84;89.66
13705;BME280;6924;52.122;9.952;2023-06-26T01:14:38;100354.94;;;19.86;89.53
13705;BME280;6924;52.122;9.952;2023-06-26T01:17:04;100355.78;;;19.87;89.82
13705;BME280;6924;52.122;9.952;2023-06-26T01:19:32;100352.47;;;19.85;89.35
13705;BME280;6924;52.122;9.952;2023-06-26T01:22:02;100353.66;;;19.84;88.83
13705;BME280;6924;52.122;9.952;2023-06-26T01:24:45;100345.06;;;19.84;89.50
13705;BME280;6924;52.122;9.952;2023-06-26T01:27:20;100345.06;;;19.84;89.41
13705;BME280;6924;52.122;9.952;2023-06-26T01:29:49;100347.47;;;19.81;88.78
13705;BME280;6924;52.122;9.952;2023-06-26T01:32:16;100339.56;;;19.75;88.50
13705;BME280;6924;52.122;9.952;2023-06-26T01:34:46;100339.56;;;19.75;89.29
13705;BME280;6924;52.122;9.952;2023-06-26T01:37:13;100340.38;;;19.75;89.45
13705;BME280;6924;52.122;9.952;2023-06-26T01:39:39;100328.09;;;19.75;89.93
13705;BME280;6924;52.122;9.952;2023-06-26T01:42:06;100332.19;;;19.74;89.58
13705;BME280;6924;52.122;9.952;2023-06-26T01:44:37;100332.56;;;19.72;89.49
13705;BME280;6924;52.122;9.952;2023-06-26T01:47:11;100326.81;;;19.72;89.47
13705;BME280;6924;52.122;9.952;2023-06-26T01:49:46;100316.56;;;19.71;89.86
13705;BME280;6924;52.122;9.952;2023-06-26T01:52:19;100322.69;;;19.70;89.13
13705;BME280;6924;52.122;9.952;2023-06-26T01:54:55;100323.84;;;19.69;89.36
13705;BME280;6924;52.122;9.952;2023-06-26T01:57:22;100308.22;;;19.66;88.71
13705;BME280;6924;52.122;9.952;2023-06-26T01:59:52;100311.88;;;19.63;88.57
13705;BME280;6924;52.122;9.952;2023-06-26T02:02:18;100307.66;;;19.57;88.50
13705;BME280;6924;52.122;9.952;2023-06-26T02:04:45;100307.66;;;19.57;88.88
13705;BME280;6924;52.122;9.952;2023-06-26T02:07:13;100310.47;;;19.53;88.78
13705;BME280;6924;52.122;9.952;2023-06-26T02:09:40;100305.56;;;19.54;88.87
13705;BME280;6924;52.122;9.952;2023-06-26T02:12:07;100307.53;;;19.50;88.43
13705;BME280;6924;52.122;9.952;2023-06-26T02:14:33;100301.44;;;19.51;88.39
13705;BME280;6924;52.122;9.952;2023-06-26T02:17:01;100296.06;;;19.50;88.47
13705;BME280;6924;52.122;9.952;2023-06-26T02:19:27;100289.56;;;19.53;89.02
13705;BME280;6924;52.122;9.952;2023-06-26T02:21:54;100280.13;;;19.52;89.49
13705;BME280;6924;52.122;9.952;2023-06-26T02:24:20;100287.09;;;19.51;88.77
13705;BME280;6924;52.122;9.952;2023-06-26T02:26:47;100290.72;;;19.48;88.94
13705;BME280;6924;52.122;9.952;2023-06-26T02:29:14;100294.03;;;19.50;88.36
13705;BME280;6924;52.122;9.952;2023-06-26T02:31:41;100287.47;;;19.50;88.94
13705;BME280;6924;52.122;9.952;2023-06-26T02:34:09;100298.94;;;19.50;89.29
13705;BME280;6924;52.122;9.952;2023-06-26T02:36:36;100292.75;;;19.48;89.63
13705;BME280;6924;52.122;9.952;2023-06-26T02:39:02;100296.44;;;19.48;89.18
13705;BME280;6924;52.122;9.952;2023-06-26T02:41:29;100293.13;;;19.46;89.65
13705;BME280;6924;52.122;9.952;2023-06-26T02:43:55;100287.03;;;19.48;90.09
13705;BME280;6924;52.122;9.952;2023-06-26T02:46:21;100292.31;;;19.46;89.43
13705;BME280;6924;52.122;9.952;2023-06-26T02:48:48;100283.69;;;19.46;90.21
13705;BME280;6924;52.122;9.952;2023-06-26T02:51:16;100278.34;;;19.44;89.82
13705;BME280;6924;52.122;9.952;2023-06-26T02:53:42;100277.53;;;19.44;89.66
13705;BME280;6924;52.122;9.952;2023-06-26T02:56:08;100282.44;;;19.43;88.99
13705;BME280;6924;52.122;9.952;2023-06-26T02:58:35;100276.63;;;19.39;89.80
13705;BME280;6924;52.122;9.952;2023-06-26T03:01:01;100274.97;;;19.38;90.17
13705;BME280;6924;52.122;9.952;2023-06-26T03:03:28;100272.13;;;19.38;90.14
13705;BME280;6924;52.122;9.952;2023-06-26T03:05:54;100269.63;;;19.37;89.45
13705;BME280;6924;52.122;9.952;2023-06-26T03:08:22;100265.94;;;19.36;89.67
13705;BME280;6924;52.122;9.952;2023-06-26T03:10:48;100261.00;;;19.37;89.96
13705;BME280;6924;52.122;9.952;2023-06-26T03:13:15;100263.44;;;19.35;89.72
13705;BME280;6924;52.122;9.952;2023-06-26T03:15:41;100252.41;;;19.37;90.02
13705;BME280;6924;52.122;9.952;2023-06-26T03:18:08;100256.88;;;19.34;89.67
13705;BME280;6924;52.122;9.952;2023-06-26T03:20:34;100252.34;;;19.33;90.20
13705;BME280;6924;52.122;9.952;2023-06-26T03:23:01;100254.00;;;19.34;89.66
13705;BME280;6924;52.122;9.952;2023-06-26T03:25:29;100255.19;;;19.33;89.62
13705;BME280;6924;52.122;9.952;2023-06-26T03:27:55;100256.88;;;19.34;90.28
13705;BME280;6924;52.122;9.952;2023-06-26T03:30:22;100254.00;;;19.34;90.09
13705;BME280;6924;52.122;9.952;2023-06-26T03:32:48;100251.97;;;19.35;90.05
13705;BME280;6924;52.122;9.952;2023-06-26T03:35:14;100246.59;;;19.33;89.96
13705;BME280;6924;52.122;9.952;2023-06-26T03:37:41;100251.97;;;19.35;90.06
13705;BME280;6924;52.122;9.952;2023-06-26T03:40:09;100240.50;;;19.35;90.67
13705;BME280;6924;52.122;9.952;2023-06-26T03:42:37;100243.34;;;19.35;89.86
13705;BME280;6924;52.122;9.952;2023-06-26T03:45:04;100245.84;;;19.36;90.16
13705;BME280;6924;52.122;9.952;2023-06-26T03:47:31;100239.75;;;19.38;90.65
13705;BME280;6924;52.122;9.952;2023-06-26T03:49:57;100241.75;;;19.37;90.42
13705;BME280;6924;52.122;9.952;2023-06-26T03:52:23;100235.19;;;19.37;90.79
13705;BME280;6924;52.122;9.952;2023-06-26T03:54:50;100229.91;;;19.39;89.78
13705;BME280;6924;52.122;9.952;2023-06-26T03:57:16;100234.06;;;19.41;89.03
13705;BME280;6924;52.122;9.952;2023-06-26T03:59:44;100236.16;;;19.45;88.95
13705;BME280;6924;52.122;9.952;2023-06-26T04:02:10;100239.47;;;19.47;89.39
13705;BME280;6924;52.122;9.952;2023-06-26T04:04:37;100238.25;;;19.48;89.74
13705;BME280;6924;52.122;9.952;2023-06-26T04:07:04;100239.53;;;19.50;89.37
13705;BME280;6924;52.122;9.952;2023-06-26T04:09:31;100233.00;;;19.53;89.30
13705;BME280;6924;52.122;9.952;2023-06-26T04:11:57;100236.78;;;19.57;90.34
13705;BME280;6924;52.122;9.952;2023-06-26T04:14:23;100234.34;;;19.59;89.70
13705;BME280;6924;52.122;9.952;2023-06-26T04:16:51;100242.25;;;19.66;89.61
13705;BME280;6924;52.122;9.952;2023-06-26T04:19:18;100239.94;;;19.72;88.74
13705;BME280;6924;52.122;9.952;2023-06-26T04:21:44;100236.69;;;19.73;89.97
13705;BME280;6924;52.122;9.952;2023-06-26T04:24:11;100239.22;;;19.78;89.89
13705;BME280;6924;52.122;9.952;2023-06-26T04:26:38;100233.56;;;19.86;89.11
13705;BME280;6924;52.122;9.952;2023-06-26T04:29:06;100233.69;;;19.93;89.42
13705;BME280;6924;52.122;9.952;2023-06-26T04:31:32;100232.91;;;19.96;88.99
13705;BME280;6924;52.122;9.952;2023-06-26T04:34:00;100228.50;;;20.02;88.30
13705;BME280;6924;52.122;9.952;2023-06-26T04:36:27;100228.97;;;20.08;87.71
13705;BME280;6924;52.122;9.952;2023-06-26T04:38:54;100218.03;;;20.17;86.98
13705;BME280;6924;52.122;9.952;2023-06-26T04:41:20;100219.88;;;20.32;86.60
13705;BME280;6924;52.122;9.952;2023-06-26T04:43:47;100215.84;;;20.37;86.84
13705;BME280;6924;52.122;9.952;2023-06-26T04:46:13;100220.09;;;20.50;86.46
13705;BME280;6924;52.122;9.952;2023-06-26T04:48:40;100212.78;;;20.53;87.28
13705;BME280;6924;52.122;9.952;2023-06-26T04:51:08;100219.41;;;20.57;85.65
13705;BME280;6924;52.122;9.952;2023-06-26T04:53:34;100209.66;;;20.65;83.89
13705;BME280;6924;52.122;9.952;2023-06-26T04:56:00;100211.03;;;20.78;85.58
13705;BME280;6924;52.122;9.952;2023-06-26T04:58:27;100208.69;;;20.88;85.69
13705;BME280;6924;52.122;9.952;2023-06-26T05:00:53;100212.09;;;20.97;87.97
13705;BME280;6924;52.122;9.952;2023-06-26T05:03:20;100206.41;;;21.08;88.09
13705;BME280;6924;52.122;9.952;2023-06-26T05:05:47;100197.78;;;21.04;84.18
13705;BME280;6924;52.122;9.952;2023-06-26T05:08:16;100206.91;;;21.13;83.11
13705;BME280;6924;52.122;9.952;2023-06-26T05:10:43;100205.38;;;21.26;83.99
13705;BME280;6924;52.122;9.952;2023-06-26T05:13:10;100199.59;;;21.23;84.13
13705;BME280;6924;52.122;9.952;2023-06-26T05:15:37;100202.94;;;21.29;81.02
13705;BME280;6924;52.122;9.952;2023-06-26T05:18:03;100194.41;;;21.39;82.06
13705;BME280;6924;52.122;9.952;2023-06-26T05:20:30;100196.50;;;21.42;79.13
13705;BME280;6924;52.122;9.952;2023-06-26T05:22:58;100196.50;;;21.42;79.25
13705;BME280;6924;52.122;9.952;2023-06-26T05:25:26;100194.53;;;21.50;79.40
13705;BME280;6924;52.122;9.952;2023-06-26T05:27:54;100194.09;;;21.52;79.46
13705;BME280;6924;52.122;9.952;2023-06-26T05:30:22;100195.00;;;21.59;77.18
13705;BME280;6924;52.122;9.952;2023-06-26T05:32:50;100195.81;;;21.60;77.63
13705;BME280;6924;52.122;9.952;2023-06-26T05:35:18;100194.63;;;21.64;77.06
13705;BME280;6924;52.122;9.952;2023-06-26T05:37:48;100176.63;;;21.75;77.03
13705;BME280;6924;52.122;9.952;2023-06-26T05:40:15;100190.19;;;21.78;75.31
13705;BME280;6924;52.122;9.952;2023-06-26T05:42:44;100180.31;;;21.75;76.00
13705;BME280;6924;52.122;9.952;2023-06-26T05:45:11;100183.28;;;21.86;75.34
13705;BME280;6924;52.122;9.952;2023-06-26T05:47:37;100178.84;;;22.03;75.25
13705;BME280;6924;52.122;9.952;2023-06-26T05:50:05;100174.75;;;22.07;75.98
13705;BME280;6924;52.122;9.952;2023-06-26T05:52:32;100172.34;;;22.17;76.68
13705;BME280;6924;52.122;9.952;2023-06-26T05:54:59;100174.06;;;22.25;74.92
13705;BME280;6924;52.122;9.952;2023-06-26T05:57:27;100170.38;;;22.28;74.40
13705;BME280;6924;52.122;9.952;2023-06-26T05:59:56;100171.22;;;22.39;75.51
13705;BME280;6924;52.122;9.952;2023-06-26T06:02:23;100174.13;;;22.46;74.32
13705;BME280;6924;52.122;9.952;2023-06-26T06:04:49;100173.75;;;22.55;74.27
13705;BME280;6924;52.122;9.952;2023-06-26T06:07:15;100172.16;;;22.58;76.47
13705;BME280;6924;52.122;9.952;2023-06-26T06:09:42;100166.78;;;22.60;74.82
13705;BME280;6924;52.122;9.952;2023-06-26T06:12:09;100171.34;;;22.72;73.29
13705;BME280;6924;52.122;9.952;2023-06-26T06:14:35;100168.88;;;22.77;73.95
13705;BME280;6924;52.122;9.952;2023-06-26T06:17:03;100170.94;;;22.84;74.62
13705;BME280;6924;52.122;9.952;2023-06-26T06:19:29;100168.53;;;22.93;72.50
13705;BME280;6924;52.122;9.952;2023-06-26T06:21:56;100165.22;;;22.98;73.13
13705;BME280;6924;52.122;9.952;2023-06-26T06:24:22;100169.00;;;23.13;75.15
13705;BME280;6924;52.122;9.952;2023-06-26T06:26:49;100169.00;;;23.24;72.50
13705;BME280;6924;52.122;9.952;2023-06-26T06:29:15;100161.97;;;23.14;73.13
13705;BME280;6924;52.122;9.952;2023-06-26T06:31:43;100169.41;;;23.26;72.00
13705;BME280;6924;52.122;9.952;2023-06-26T06:34:11;100171.06;;;23.30;73.40
13705;BME280;6924;52.122;9.952;2023-06-26T06:36:38;100165.28;;;23.45;71.74
13705;BME280;6924;52.122;9.952;2023-06-26T06:39:04;100164.03;;;23.57;71.55
13705;BME280;6924;52.122;9.952;2023-06-26T06:41:31;100163.63;;;23.58;70.18
13705;BME280;6924;52.122;9.952;2023-06-26T06:43:57;100156.59;;;23.63;70.33
13705;BME280;6924;52.122;9.952;2023-06-26T06:46:24;100153.75;;;23.59;69.31
13705;BME280;6924;52.122;9.952;2023-06-26T06:48:52;100149.19;;;23.62;67.69
13705;BME280;6924;52.122;9.952;2023-06-26T06:51:20;100161.13;;;23.67;69.29
13705;BME280;6924;52.122;9.952;2023-06-26T06:53:46;100147.94;;;23.66;67.54
13705;BME280;6924;52.122;9.952;2023-06-26T06:56:12;100156.19;;;23.64;66.75
13705;BME280;6924;52.122;9.952;2023-06-26T06:58:39;100150.81;;;23.73;67.78
13705;BME280;6924;52.122;9.952;2023-06-26T07:01:07;100149.56;;;23.85;69.05
13705;BME280;6924;52.122;9.952;2023-06-26T07:03:34;100142.16;;;23.88;68.01
13705;BME280;6924;52.122;9.952;2023-06-26T07:06:01;100147.09;;;23.95;68.13
13705;BME280;6924;52.122;9.952;2023-06-26T07:08:29;100139.66;;;23.97;66.94
13705;BME280;6924;52.122;9.952;2023-06-26T07:10:56;100145.81;;;24.06;68.63
13705;BME280;6924;52.122;9.952;2023-06-26T07:13:22;100149.13;;;24.12;67.58
13705;BME280;6924;52.122;9.952;2023-06-26T07:15:49;100152.78;;;24.16;67.27
13705;BME280;6924;52.122;9.952;2023-06-26T07:18:16;100148.59;;;24.35;67.60
13705;BME280;6924;52.122;9.952;2023-06-26T07:20:42;100146.13;;;24.41;68.52
13705;BME280;6924;52.122;9.952;2023-06-26T07:23:09;100150.22;;;24.50;67.49
13705;BME280;6924;52.122;9.952;2023-06-26T07:25:36;100149.34;;;24.53;67.26
13705;BME280;6924;52.122;9.952;2023-06-26T07:28:03;100143.94;;;24.66;65.13
13705;BME280;6924;52.122;9.952;2023-06-26T07:30:29;100145.06;;;24.83;63.92
13705;BME280;6924;52.122;9.952;2023-06-26T07:32:56;100147.16;;;24.83;63.25
13705;BME280;6924;52.122;9.952;2023-06-26T07:35:22;100150.81;;;24.90;62.08
13705;BME280;6924;52.122;9.952;2023-06-26T07:37:50;100140.78;;;25.02;62.55
13705;BME280;6924;52.122;9.952;2023-06-26T07:40:16;100150.25;;;25.10;61.94
13705;BME280;6924;52.122;9.952;2023-06-26T07:42:44;100147.38;;;25.06;62.25
13705;BME280;6924;52.122;9.952;2023-06-26T07:45:11;100142.38;;;25.14;62.25
13705;BME280;6924;52.122;9.952;2023-06-26T07:47:38;100147.31;;;25.21;60.62
13705;BME280;6924;52.122;9.952;2023-06-26T07:50:05;100140.72;;;25.20;61.74
13705;BME280;6924;52.122;9.952;2023-06-26T07:52:32;100139.00;;;25.26;60.42
13705;BME280;6924;52.122;9.952;2023-06-26T07:54:58;100132.38;;;25.29;61.46
13705;BME280;6924;52.122;9.952;2023-06-26T07:57:25;100131.03;;;25.38;61.81
13705;BME280;6924;52.122;9.952;2023-06-26T07:59:52;100142.50;;;25.52;61.75
13705;BME280;6924;52.122;9.952;2023-06-26T08:02:19;100135.41;;;25.56;59.96
13705;BME280;6924;52.122;9.952;2023-06-26T08:04:45;100138.63;;;25.66;60.20
13705;BME280;6924;52.122;9.952;2023-06-26T08:07:12;100136.91;;;25.72;61.18
13705;BME280;6924;52.122;9.952;2023-06-26T08:09:39;100144.34;;;25.73;59.35
13705;BME280;6924;52.122;9.952;2023-06-26T08:12:07;100145.09;;;25.84;59.39
13705;BME280;6924;52.122;9.952;2023-06-26T08:14:33;100141.72;;;25.93;56.84
13705;BME280;6924;52.122;9.952;2023-06-26T08:17:01;100142.44;;;26.01;57.35
13705;BME280;6924;52.122;9.952;2023-06-26T08:19:27;100144.84;;;26.06;55.06
13705;BME280;6924;52.122;9.952;2023-06-26T08:21:54;100139.84;;;26.10;56.79
13705;BME280;6924;52.122;9.952;2023-06-26T08:24:20;100134.31;;;26.23;59.85
13705;BME280;6924;52.122;9.952;2023-06-26T08:26:47;100140.84;;;26.30;57.17
13705;BME280;6924;52.122;9.952;2023-06-26T08:29:14;100142.06;;;26.33;56.04
13705;BME280;6924;52.122;9.952;2023-06-26T08:31:42;100140.75;;;26.37;56.49
13705;BME280;6924;52.122;9.952;2023-06-26T08:34:10;100154.00;;;26.38;53.59
13705;BME280;6924;52.122;9.952;2023-06-26T08:36:36;100144.06;;;26.39;57.24
13705;BME280;6924;52.122;9.952;2023-06-26T08:39:03;100145.25;;;26.42;56.74
13705;BME280;6924;52.122;9.952;2023-06-26T08:41:30;100141.88;;;26.47;56.71
13705;BME280;6924;52.122;9.952;2023-06-26T08:43:57;100132.69;;;26.52;56.71
13705;BME280;6924;52.122;9.952;2023-06-26T08:46:23;100131.31;;;26.64;58.05
13705;BME280;6924;52.122;9.952;2023-06-26T08:48:55;100130.00;;;26.69;59.39
13705;BME280;6924;52.122;9.952;2023-06-26T08:51:24;100116.38;;;26.66;55.06
13705;BME280;6924;52.122;9.952;2023-06-26T08:53:56;100119.09;;;26.76;56.13
13705;BME280;6924;52.122;9.952;2023-06-26T08:56:24;100118.56;;;26.85;59.37
13705;BME280;6924;52.122;9.952;2023-06-26T08:58:51;100122.97;;;26.97;56.34
13705;BME280;6924;52.122;9.952;2023-06-26T09:01:18;100118.75;;;27.02;56.13
13705;BME280;6924;52.122;9.952;2023-06-26T09:03:44;100119.50;;;27.06;56.06
13705;BME280;6924;52.122;9.952;2023-06-26T09:06:11;100125.56;;;27.15;54.99
13705;BME280;6924;52.122;9.952;2023-06-26T09:08:39;100122.53;;;27.26;56.19
13705;BME280;6924;52.122;9.952;2023-06-26T09:11:05;100134.78;;;27.37;54.55
13705;BME280;6924;52.122;9.952;2023-06-26T09:13:31;100137.53;;;27.44;55.29
13705;BME280;6924;52.122;9.952;2023-06-26T09:15:58;100161.13;;;27.50;55.75
13705;BME280;6924;52.122;9.952;2023-06-26T09:18:24;100173.16;;;27.48;53.49
13705;BME280;6924;52.122;9.952;2023-06-26T09:20:51;100166.53;;;27.48;55.08
13705;BME280;6924;52.122;9.952;2023-06-26T09:23:17;100171.25;;;27.38;51.09
13705;BME280;6924;52.122;9.952;2023-06-26T09:25:47;100181.28;;;27.33;52.92
13705;BME280;6924;52.122;9.952;2023-06-26T09:28:13;100167.91;;;27.39;54.34
13705;BME280;6924;52.122;9.952;2023-06-26T09:30:40;100156.16;;;27.47;54.45
13705;BME280;6924;52.122;9.952;2023-06-26T09:33:14;100158.38;;;27.62;56.59
13705;BME280;6924;52.122;9.952;2023-06-26T09:35:40;100165.22;;;27.76;57.34
13705;BME280;6924;52.122;9.952;2023-06-26T09:38:07;100163.78;;;27.84;56.96
13705;BME280;6924;52.122;9.952;2023-06-26T09:40:33;100156.38;;;27.59;53.21
13705;BME280;6924;52.122;9.952;2023-06-26T09:43:04;100154.97;;;27.68;56.17
13705;BME280;6924;52.122;9.952;2023-06-26T09:45:31;100150.69;;;27.76;56.55
13705;BME280;6924;52.122;9.952;2023-06-26T09:48:00;100163.78;;;27.84;55.23
13705;BME280;6924;52.122;9.952;2023-06-26T09:50:27;100160.72;;;27.71;52.99
13705;BME280;6924;52.122;9.952;2023-06-26T09:52:53;100164.66;;;27.61;53.00
13705;BME280;6924;52.122;9.952;2023-06-26T09:55:20;100176.97;;;27.45;53.64
13705;BME280;6924;52.122;9.952;2023-06-26T09:57:49;100178.25;;;27.40;52.83
13705;BME280;6924;52.122;9.952;2023-06-26T10:00:17;100184.41;;;27.46;51.40
13705;BME280;6924;52.122;9.952;2023-06-26T10:02:44;100184.13;;;27.37;53.38
13705;BME280;6924;52.122;9.952;2023-06-26T10:05:11;100182.59;;;27.29;53.63
13705;BME280;6924;52.122;9.952;2023-06-26T10:07:39;100192.06;;;27.06;52.99
13705;BME280;6924;52.122;9.952;2023-06-26T10:10:07;100195.97;;;26.92;54.53
13705;BME280;6924;52.122;9.952;2023-06-26T10:12:34;100198.59;;;26.83;54.99
13705;BME280;6924;52.122;9.952;2023-06-26T10:15:02;100208.81;;;26.94;57.09
13705;BME280;6924;52.122;9.952;2023-06-26T10:17:34;100212.81;;;26.73;55.66
13705;BME280;6924;52.122;9.952;2023-06-26T10:20:02;100217.97;;;26.58;57.37
13705;BME280;6924;52.122;9.952;2023-06-26T10:22:34;100224.22;;;26.57;59.65
13705;BME280;6924;52.122;9.952;2023-06-26T10:25:03;100223.81;;;26.55;59.95
13705;BME280;6924;52.122;9.952;2023-06-26T10:27:35;100237.91;;;26.53;58.00
13705;BME280;6924;52.122;9.952;2023-06-26T10:30:08;100242.13;;;26.48;57.34
13705;BME280;6924;52.122;9.952;2023-06-26T10:32:37;100238.47;;;26.03;58.75
13705;BME280;6924;52.122;9.952;2023-06-26T10:35:05;100244.72;;;25.97;60.50
13705;BME280;6924;52.122;9.952;2023-06-26T10:37:42;100252.72;;;25.79;59.99
13705;BME280;6924;52.122;9.952;2023-06-26T10:40:09;100255.59;;;25.83;60.98
13705;BME280;6924;52.122;9.952;2023-06-26T10:42:37;100239.56;;;25.71;59.86
13705;BME280;6924;52.122;9.952;2023-06-26T10:45:10;100246.47;;;25.84;62.78
13705;BME280;6924;52.122;9.952;2023-06-26T10:47:40;100251.75;;;25.96;63.47
13705;BME280;6924;52.122;9.952;2023-06-26T10:50:18;100253.88;;;25.92;61.15
13705;BME280;6924;52.122;9.952;2023-06-26T10:52:45;100267.56;;;25.88;58.45
13705;BME280;6924;52.122;9.952;2023-06-26T10:55:13;100280.09;;;25.71;60.48
13705;BME280;6924;52.122;9.952;2023-06-26T10:57:44;100276.22;;;25.36;62.13
13705;BME280;6924;52.122;9.952;2023-06-26T11:00:14;100278.72;;;25.30;65.92
13705;BME280;6924;52.122;9.952;2023-06-26T11:02:51;100279.53;;;25.34;66.58
13705;BME280;6924;52.122;9.952;2023-06-26T11:05:25;100283.34;;;25.13;67.54
13705;BME280;6924;52.122;9.952;2023-06-26T11:08:06;100296.28;;;24.84;69.49
13705;BME280;6924;52.122;9.952;2023-06-26T11:10:48;100298.00;;;24.67;71.11
13705;BME280;6924;52.122;9.952;2023-06-26T11:13:17;100300.91;;;24.63;72.66
13705;BME280;6924;52.122;9.952;2023-06-26T11:15:44;100293.44;;;24.73;73.73
13705;BME280;6924;52.122;9.952;2023-06-26T11:18:13;100309.53;;;24.85;75.35
13705;BME280;6924;52.122;9.952;2023-06-26T11:20:39;100308.31;;;24.71;73.25
13705;BME280;6924;52.122;9.952;2023-06-26T11:23:07;100302.16;;;24.66;73.15
13705;BME280;6924;52.122;9.952;2023-06-26T11:25:34;100299.63;;;24.79;74.08
13705;BME280;6924;52.122;9.952;2023-06-26T11:28:02;100313.66;;;24.84;77.48
13705;BME280;6924;52.122;9.952;2023-06-26T11:30:29;100309.63;;;24.52;77.39
13705;BME280;6924;52.122;9.952;2023-06-26T11:33:03;100312.06;;;24.68;79.10
13705;BME280;6924;52.122;9.952;2023-06-26T11:35:31;100312.50;;;24.42;79.34
13705;BME280;6924;52.122;9.952;2023-06-26T11:37:57;100317.91;;;24.22;79.55
13705;BME280;6924;52.122;9.952;2023-06-26T11:40:26;100312.53;;;23.99;81.93
13705;BME280;6924;52.122;9.952;2023-06-26T11:42:55;100326.16;;;23.87;81.70
13705;BME280;6924;52.122;9.952;2023-06-26T11:45:22;100330.69;;;23.70;77.87
13705;BME280;6924;52.122;9.952;2023-06-26T11:47:48;100337.28;;;23.75;78.73
13705;BME280;6924;52.122;9.952;2023-06-26T11:50:15;100336.06;;;23.86;78.47
13705;BME280;6924;52.122;9.952;2023-06-26T11:52:44;100336.91;;;23.80;76.54
13705;BME280;6924;52.122;9.952;2023-06-26T11:55:10;100353.00;;;23.84;76.14
13705;BME280;6924;52.122;9.952;2023-06-26T11:57:37;100343.88;;;23.79;77.89
13705;BME280;6924;52.122;9.952;2023-06-26T12:00:13;100350.50;;;23.93;77.95
13705;BME280;6924;52.122;9.952;2023-06-26T12:02:40;100342.66;;;23.76;77.97
13705;BME280;6924;52.122;9.952;2023-06-26T12:05:08;100355.84;;;23.81;77.67
13705;BME280;6924;52.122;9.952;2023-06-26T12:07:35;100355.03;;;23.87;77.97
13705;BME280;6924;52.122;9.952;2023-06-26T12:10:04;100350.91;;;24.03;79.34
13705;BME280;6924;52.122;9.952;2023-06-26T12:12:31;100362.91;;;24.05;80.37
13705;BME280;6924;52.122;9.952;2023-06-26T12:14:59;100376.53;;;24.08;79.61
13705;BME280;6924;52.122;9.952;2023-06-26T12:17:26;100370.75;;;24.19;78.07
13705;BME280;6924;52.122;9.952;2023-06-26T12:19:52;100366.59;;;24.05;78.69
13705;BME280;6924;52.122;9.952;2023-06-26T12:22:19;100356.28;;;23.93;78.00
13705;BME280;6924;52.122;9.952;2023-06-26T12:24:46;100356.31;;;24.08;78.03
13705;BME280;6924;52.122;9.952;2023-06-26T12:27:16;100352.56;;;24.18;78.00
13705;BME280;6924;52.122;9.952;2023-06-26T12:29:49;100353.41;;;24.19;72.36
13705;BME280;6924;52.122;9.952;2023-06-26T12:32:17;100355.47;;;23.97;71.52
13705;BME280;6924;52.122;9.952;2023-06-26T12:34:48;100346.00;;;23.92;74.18
13705;BME280;6924;52.122;9.952;2023-06-26T12:37:15;100351.72;;;23.85;75.68
13705;BME280;6924;52.122;9.952;2023-06-26T12:39:46;100358.78;;;23.95;74.68
13705;BME280;6924;52.122;9.952;2023-06-26T12:42:15;100357.13;;;23.90;72.22
13705;BME280;6924;52.122;9.952;2023-06-26T12:44:41;100364.09;;;23.68;68.49
13705;BME280;6924;52.122;9.952;2023-06-26T12:47:08;100358.69;;;23.48;69.73
13705;BME280;6924;52.122;9.952;2023-06-26T12:49:36;100368.97;;;23.42;68.82
13705;BME280;6924;52.122;9.952;2023-06-26T12:52:06;100373.06;;;23.41;71.69
13705;BME280;6924;52.122;9.952;2023-06-26T12:54:33;100383.81;;;23.44;72.16
13705;BME280;6924;52.122;9.952;2023-06-26T12:57:00;100378.81;;;23.34;71.04
13705;BME280;6924;52.122;9.952;2023-06-26T12:59:30;100375.56;;;23.39;70.13
13705;BME280;6924;52.122;9.952;2023-06-26T13:01:57;100378.44;;;23.39;70.24
13705;BME280;6924;52.122;9.952;2023-06-26T13:04:23;100381.75;;;23.45;71.19